Coeur d'Alene, ID (83814)

4:23 PM PST on February 26, 2015 (GMT -0800)
Indian Meadows | Change Station
CLOSE
Current Station
Personal Weather Station
Location: Coeur D'Alene, ID
Elevation: 2250 ft
Nearby Weather Stations

Elev 2250 ft 47.71 °N, 116.83 °W | Updated 19 seconds ago

Overcast
Overcast
43.5 °F
Feels Like 44 °F
N
2.9
Wind Variable Wind from WNW
Gusts 2.9 mph

Today
High -- | Low -- °F
--% Chance of Precip.
Yesterday
High -- | Low -- °F
Precip. -- in
6:33 AM 5:27 PM
Waxing Gibbous, 63% visible
Pressure 29.99 in
Visibility 10.0 miles
Clouds Few 4200 ft
Overcast 6000 ft
Windchill 44 °F
Dew Point 24 °F
Humidity 45%
Rainfall 0.00 in
Snow Depth Not available.
UV 0 out of 12
Pollen 2.60 out of 12
Air Quality Not available.
Flu Activity Not available.
METAR KCOE 270015Z AUTO 01008KT 10SM FEW042 OVC060 06/M03 A2999 RMK AO1

More Conditions Fewer Conditions

Pressure 29.99 in
Visibility 10.0 miles
Clouds Few 4200 ft
Overcast 6000 ft
Windchill 44 °F
Dew Point 24 °F
Humidity 45%
Rainfall 0.00 in
Snow Depth Not available.
UV 0 out of 12
Pollen 2.60 out of 12
Air Quality Not available.
Flu Activity Not available.
METAR KCOE 270015Z AUTO 01008KT 10SM FEW042 OVC060 06/M03 A2999 RMK AO1

More Conditions Fewer Conditions

10-Day Weather Forecast

Almanac

Astronomy

Feb. 26, 2015 Rise Set
Actual Time
Civil Twilight
Nautical Twilight
Astronomical Twilight
Moon
Length of Visible Light
Length of Day
Tomorrow will be .
, % of the Moon is Illuminated

Today's Extremes

State Highs State Lows

Community

WunderPhotos

Upload Photos

1,800,543 photos uploaded!

WunderBlogs® & News

Nearby

Air Quality

  Air Quality AQ Index Pollutant
Not available.

Snow Depth

Station Depth Elevation

Earthquake Activity

City Distance Mag. Time & Date
Minimum magnitude displayed is 2.5.

Coastal Water Temperatures

Place Temperature

Nearby Weather Stations